createdAt,value
2023-01-11T00:00:17.907Z,0.70
2023-01-11T00:02:45.909Z,1.40
2023-01-11T00:05:12.288Z,1.08
2023-01-11T00:07:41.060Z,1.13
2023-01-11T00:10:08.242Z,1.02
2023-01-11T00:12:34.575Z,1.38
2023-01-11T00:15:00.870Z,1.17
2023-01-11T00:17:28.502Z,1.05
2023-01-11T00:19:54.817Z,0.88
2023-01-11T00:22:21.457Z,2.00
2023-01-11T00:24:47.818Z,3.40
2023-01-11T00:27:14.133Z,1.17
2023-01-11T00:29:40.469Z,0.70
2023-01-11T00:32:06.947Z,0.88
2023-01-11T00:34:33.461Z,0.50
2023-01-11T00:36:59.821Z,0.90
2023-01-11T00:39:26.105Z,0.70
2023-01-11T00:42:10.949Z,0.73
2023-01-11T00:44:55.925Z,0.70
2023-01-11T00:47:41.054Z,0.70
2023-01-11T00:50:07.744Z,0.80
2023-01-11T00:52:34.254Z,1.65
2023-01-11T00:55:00.638Z,1.63
2023-01-11T00:57:26.995Z,1.10
2023-01-11T00:59:53.354Z,1.30
2023-01-11T01:02:19.796Z,1.20
2023-01-11T01:04:46.163Z,1.20
2023-01-11T01:07:12.521Z,0.82
2023-01-11T01:09:38.852Z,0.80
2023-01-11T01:12:06.887Z,0.88
2023-01-11T01:14:33.687Z,1.92
2023-01-11T01:17:00.234Z,1.23
2023-01-11T01:19:29.594Z,1.00
2023-01-11T01:21:56.634Z,1.20
2023-01-11T01:24:23.237Z,1.63
2023-01-11T01:26:49.694Z,2.55
2023-01-11T01:29:16.133Z,1.75
2023-01-11T01:31:43.055Z,2.00
2023-01-11T01:34:10.047Z,1.15
2023-01-11T01:36:36.532Z,1.63
2023-01-11T01:39:03.937Z,1.88
2023-01-11T01:41:30.261Z,1.10
2023-01-11T01:43:58.062Z,2.00
2023-01-11T01:46:28.961Z,1.70
2023-01-11T01:49:11.310Z,2.13
2023-01-11T01:51:46.516Z,1.63
2023-01-11T01:54:14.920Z,1.15
2023-01-11T01:56:49.698Z,1.77
2023-01-11T01:59:17.890Z,2.40
2023-01-11T02:01:47.939Z,1.58
2023-01-11T02:04:18.836Z,1.52
2023-01-11T02:06:45.362Z,1.48
2023-01-11T02:09:22.049Z,1.10
2023-01-11T02:11:49.482Z,1.55
2023-01-11T02:14:17.581Z,2.63
2023-01-11T02:16:43.881Z,1.58
2023-01-11T02:19:14.413Z,1.10
2023-01-11T02:21:46.886Z,1.10
2023-01-11T02:24:22.517Z,0.93
2023-01-11T02:26:55.482Z,1.23
2023-01-11T02:29:30.062Z,1.50
2023-01-11T02:32:02.663Z,1.15
2023-01-11T02:34:35.267Z,1.42
2023-01-11T02:37:13.640Z,2.33
2023-01-11T02:39:39.938Z,1.20
2023-01-11T02:42:31.386Z,0.82
2023-01-11T02:45:05.238Z,1.40
2023-01-11T02:47:52.116Z,1.88
2023-01-11T02:50:26.214Z,1.20
2023-01-11T02:52:52.568Z,2.63
2023-01-11T02:55:22.048Z,1.20
2023-01-11T02:57:48.735Z,2.00
2023-01-11T03:00:16.839Z,1.27
2023-01-11T03:02:43.249Z,1.45
2023-01-11T03:05:13.690Z,1.90
2023-01-11T03:08:00.299Z,2.15
2023-01-11T03:10:49.388Z,3.28
2023-01-11T03:13:18.475Z,1.55
2023-01-11T03:15:50.831Z,2.58
2023-01-11T03:18:29.338Z,2.00
2023-01-11T03:21:04.648Z,2.08
2023-01-11T03:23:51.319Z,1.30
2023-01-11T03:26:38.988Z,1.30
2023-01-11T03:29:11.579Z,0.80
2023-01-11T03:31:47.875Z,2.15
2023-01-11T03:34:23.565Z,1.02
2023-01-11T03:36:54.043Z,1.48
2023-01-11T03:39:27.081Z,1.67
2023-01-11T03:41:57.139Z,1.20
2023-01-11T03:44:24.698Z,0.90
2023-01-11T03:46:53.775Z,1.05
2023-01-11T03:49:30.034Z,1.63
2023-01-11T03:51:58.110Z,1.30
2023-01-11T03:54:26.651Z,2.35
2023-01-11T03:57:01.700Z,1.20
2023-01-11T03:59:28.161Z,1.73
2023-01-11T04:01:54.940Z,1.48
2023-01-11T04:04:21.441Z,1.20
2023-01-11T04:06:47.884Z,1.15
2023-01-11T04:09:14.303Z,1.27
2023-01-11T04:11:40.773Z,2.00
2023-01-11T04:14:07.058Z,1.45
2023-01-11T04:16:33.467Z,2.47
2023-01-11T04:19:00.043Z,1.17
2023-01-11T04:21:26.375Z,1.33
2023-01-11T04:23:52.775Z,2.40
2023-01-11T04:26:19.097Z,1.48
2023-01-11T04:28:45.519Z,1.77
2023-01-11T04:31:11.851Z,3.25
2023-01-11T04:33:38.238Z,2.28
2023-01-11T04:36:08.262Z,1.55
2023-01-11T04:38:34.924Z,1.42
2023-01-11T04:41:21.554Z,3.45
2023-01-11T04:43:49.722Z,1.45
2023-01-11T04:46:16.063Z,4.40
2023-01-11T04:48:42.475Z,1.77
2023-01-11T04:51:09.174Z,1.50
2023-01-11T04:53:35.867Z,3.15
2023-01-11T04:56:02.623Z,1.80
2023-01-11T04:58:29.273Z,2.03
2023-01-11T05:00:55.635Z,2.28
2023-01-11T05:03:22.393Z,1.55
2023-01-11T05:05:56.012Z,1.92
2023-01-11T05:08:22.427Z,1.90
2023-01-11T05:10:55.276Z,3.47
2023-01-11T05:13:21.664Z,1.45
2023-01-11T05:15:48.169Z,1.67
2023-01-11T05:18:14.530Z,1.27
2023-01-11T05:20:40.978Z,1.17
2023-01-11T05:23:07.322Z,1.35
2023-01-11T05:25:33.793Z,1.00
2023-01-11T05:28:00.179Z,2.05
2023-01-11T05:30:26.534Z,1.63
2023-01-11T05:32:53.018Z,1.55
2023-01-11T05:35:19.410Z,0.95
2023-01-11T05:37:45.712Z,1.13
2023-01-11T05:40:12.210Z,0.90
2023-01-11T05:42:38.669Z,0.73
2023-01-11T05:45:23.884Z,0.80
2023-01-11T05:47:52.283Z,1.08
2023-01-11T05:50:18.663Z,0.82
2023-01-11T05:52:44.958Z,0.90
2023-01-11T05:55:11.292Z,1.40
2023-01-11T05:57:40.600Z,1.25
2023-01-11T06:00:07.438Z,1.25
2023-01-11T06:02:37.265Z,0.70
2023-01-11T06:05:03.988Z,2.35
2023-01-11T06:07:30.313Z,0.77
2023-01-11T06:09:56.609Z,1.42
2023-01-11T06:12:23.061Z,1.05
2023-01-11T06:14:49.400Z,0.80
2023-01-11T06:17:15.764Z,0.80
2023-01-11T06:19:42.047Z,0.80
2023-01-11T06:22:08.382Z,0.60
2023-01-11T06:24:34.678Z,1.20
2023-01-11T06:27:01.089Z,0.93
2023-01-11T06:29:27.424Z,1.17
2023-01-11T06:31:53.779Z,0.85
2023-01-11T06:34:20.129Z,0.80
2023-01-11T06:36:46.413Z,0.80
2023-01-11T06:39:12.770Z,0.80
2023-01-11T06:41:39.413Z,0.60
2023-01-11T06:44:06.182Z,0.80
2023-01-11T06:46:32.515Z,1.27
2023-01-11T06:48:58.919Z,0.70
2023-01-11T06:51:25.278Z,1.08
2023-01-11T06:53:51.629Z,1.65
2023-01-11T06:56:21.046Z,0.85
2023-01-11T06:58:47.961Z,1.10
2023-01-11T07:01:15.197Z,2.92
2023-01-11T07:03:41.866Z,2.28
2023-01-11T07:06:08.210Z,1.92
2023-01-11T07:08:34.679Z,2.55
2023-01-11T07:11:01.081Z,4.28
2023-01-11T07:13:27.868Z,2.88
2023-01-11T07:15:56.728Z,2.30
2023-01-11T07:18:23.406Z,2.78
2023-01-11T07:20:50.654Z,2.17
2023-01-11T07:23:17.290Z,2.17
2023-01-11T07:25:43.755Z,1.30
2023-01-11T07:28:10.073Z,1.00
2023-01-11T07:30:55.640Z,0.80
2023-01-11T07:33:23.725Z,0.88
2023-01-11T07:35:50.116Z,0.90
2023-01-11T07:38:16.459Z,0.60
2023-01-11T07:40:42.794Z,0.80
2023-01-11T07:43:11.506Z,2.08
2023-01-11T07:45:45.871Z,1.63
2023-01-11T07:48:13.192Z,0.90
2023-01-11T07:50:41.718Z,0.70
2023-01-11T07:53:09.815Z,0.63
2023-01-11T07:55:36.343Z,0.65
2023-01-11T07:58:03.303Z,0.60
2023-01-11T08:00:30.041Z,1.60
2023-01-11T08:02:56.614Z,1.13
2023-01-11T08:05:24.513Z,1.25
2023-01-11T08:07:50.817Z,0.57
2023-01-11T08:10:17.449Z,0.80
2023-01-11T08:13:19.630Z,0.80
2023-01-11T08:15:46.118Z,1.30
2023-01-11T08:18:12.816Z,0.80
2023-01-11T08:20:39.919Z,1.10
2023-01-11T08:23:07.396Z,0.70
2023-01-11T08:25:33.982Z,0.98
2023-01-11T08:28:01.558Z,0.70
2023-01-11T08:30:28.280Z,0.50
2023-01-11T08:32:54.807Z,0.95
2023-01-11T08:35:21.958Z,0.77
2023-01-11T08:37:48.250Z,0.60
2023-01-11T08:40:14.624Z,0.60
2023-01-11T08:42:41.227Z,0.80
2023-01-11T08:45:07.774Z,1.15
2023-01-11T08:47:34.096Z,1.63
2023-01-11T08:50:00.442Z,1.05
2023-01-11T08:52:26.765Z,1.23
2023-01-11T08:54:53.370Z,1.15
2023-01-11T08:57:20.869Z,0.60
2023-01-11T08:59:47.216Z,0.95
2023-01-11T09:02:13.710Z,0.90
2023-01-11T09:04:41.444Z,1.42
2023-01-11T09:07:07.915Z,1.23
2023-01-11T09:09:34.284Z,1.40
2023-01-11T09:12:05.527Z,1.40
2023-01-11T09:14:32.302Z,1.20
2023-01-11T09:16:58.732Z,1.25
2023-01-11T09:19:25.551Z,1.92
2023-01-11T09:21:52.148Z,1.77
2023-01-11T09:24:18.674Z,0.90
2023-01-11T09:26:45.222Z,1.17
2023-01-11T09:29:11.875Z,1.17
2023-01-11T09:31:38.771Z,1.60
2023-01-11T09:34:06.864Z,1.00
2023-01-11T09:36:35.827Z,1.75
2023-01-11T09:39:05.757Z,1.05
2023-01-11T09:41:40.639Z,1.02
2023-01-11T09:44:16.411Z,1.00
2023-01-11T09:46:45.120Z,0.60
2023-01-11T09:49:16.486Z,1.00
2023-01-11T09:51:43.320Z,0.60
2023-01-11T09:54:15.988Z,0.40
2023-01-11T09:56:48.020Z,1.23
2023-01-11T10:01:53.600Z,0.30
2023-01-11T10:04:34.352Z,0.50
2023-01-11T10:07:12.426Z,0.20
2023-01-11T10:18:31.227Z,0.30
2023-01-11T10:18:39.451Z,0.30
2023-01-11T10:20:55.264Z,0.38
2023-01-11T10:23:28.923Z,0.28
2023-01-11T10:25:57.990Z,0.20
2023-01-11T10:28:31.232Z,0.65
2023-01-11T10:30:57.657Z,0.80
2023-01-11T10:33:55.153Z,1.35
2023-01-11T10:36:31.345Z,0.98
2023-01-11T10:39:08.132Z,1.73
2023-01-11T10:41:37.654Z,2.67
2023-01-11T10:44:10.575Z,3.17
2023-01-11T10:46:39.939Z,2.47
2023-01-11T10:49:34.475Z,2.00
2023-01-11T10:52:15.070Z,4.07
2023-01-11T10:54:46.836Z,4.43
2023-01-11T10:57:32.645Z,1.55
2023-01-11T11:00:09.282Z,1.88
2023-01-11T11:02:44.512Z,0.57
2023-01-11T11:05:27.950Z,0.63
2023-01-11T11:08:00.145Z,0.63
2023-01-11T11:10:35.643Z,0.73
2023-01-11T11:13:12.508Z,1.58
2023-01-11T11:15:45.282Z,0.55
2023-01-11T11:18:11.608Z,0.85
2023-01-11T11:20:38.065Z,0.52
2023-01-11T11:23:04.449Z,1.00
2023-01-11T11:25:32.037Z,0.50
2023-01-11T11:28:05.967Z,0.50
2023-01-11T11:30:37.803Z,1.60
2023-01-11T11:33:20.203Z,1.08
2023-01-11T11:35:54.408Z,0.80
2023-01-11T11:38:25.085Z,1.02
2023-01-11T11:41:11.688Z,0.50
2023-01-11T11:43:39.099Z,0.80
2023-01-11T11:46:20.368Z,0.40
2023-01-11T11:49:05.665Z,0.57
2023-01-11T11:51:32.474Z,0.75
2023-01-11T11:53:58.806Z,0.60
2023-01-11T11:56:27.607Z,1.20
2023-01-11T11:58:54.593Z,0.73
2023-01-11T12:01:26.769Z,0.57
2023-01-11T12:03:55.493Z,1.30
2023-01-11T12:06:29.420Z,0.47
2023-01-11T12:08:57.011Z,0.40
2023-01-11T12:11:30.147Z,0.43
2023-01-11T12:14:02.075Z,0.52
2023-01-11T12:16:34.731Z,0.20
2023-01-11T12:19:01.107Z,0.28
2023-01-11T12:21:30.079Z,0.30
2023-01-11T12:24:10.313Z,1.02
2023-01-11T12:26:45.682Z,0.30
2023-01-11T12:29:32.325Z,1.67
2023-01-11T12:32:04.500Z,0.38
2023-01-11T12:34:35.566Z,0.70
2023-01-11T12:37:04.665Z,0.63
2023-01-11T12:39:34.042Z,0.60
2023-01-11T12:42:09.383Z,0.43
2023-01-11T12:44:51.307Z,0.60
2023-01-11T12:47:40.790Z,0.93
2023-01-11T12:50:16.246Z,0.60
2023-01-11T12:52:48.958Z,1.52
2023-01-11T12:55:15.305Z,0.70
2023-01-11T12:58:05.381Z,0.88
2023-01-11T13:00:52.026Z,3.15
2023-01-11T13:03:35.412Z,2.20
2023-01-11T13:06:11.649Z,2.65
2023-01-11T13:08:43.950Z,1.02
2023-01-11T13:11:37.866Z,3.40
2023-01-11T13:14:07.452Z,1.63
2023-01-11T13:16:45.792Z,4.32
2023-01-11T13:19:18.203Z,1.55
2023-01-11T13:21:53.066Z,3.40
2023-01-11T13:24:30.487Z,2.13
2023-01-11T13:27:01.480Z,1.52
2023-01-11T13:29:30.660Z,4.20
2023-01-11T13:32:02.679Z,2.25
2023-01-11T13:37:00.378Z,6.63
2023-01-11T13:39:29.717Z,3.92
2023-01-11T13:41:58.269Z,2.72
2023-01-11T13:44:26.766Z,2.42
2023-01-11T13:47:00.210Z,1.77
2023-01-11T13:49:38.752Z,1.90
2023-01-11T13:52:13.589Z,2.47
2023-01-11T13:54:52.174Z,1.50
2023-01-11T13:57:36.779Z,2.60
2023-01-11T14:00:06.661Z,2.00
2023-01-11T14:02:40.058Z,4.72
2023-01-11T14:05:09.291Z,3.40
2023-01-11T14:07:47.880Z,1.60
2023-01-11T14:10:22.987Z,2.42
2023-01-11T14:13:35.782Z,3.58
2023-01-11T14:16:08.877Z,5.63
2023-01-11T14:18:36.924Z,5.95
2023-01-11T14:21:10.767Z,5.13
2023-01-11T14:23:49.077Z,3.97
2023-01-11T14:26:38.527Z,2.92
2023-01-11T14:29:25.623Z,2.78
2023-01-11T14:32:18.352Z,6.15
2023-01-11T14:35:03.254Z,3.78
2023-01-11T14:37:37.986Z,5.38
2023-01-11T14:40:16.354Z,7.35
2023-01-11T14:43:01.772Z,4.70
2023-01-11T14:45:46.810Z,3.30
2023-01-11T14:48:13.154Z,1.95
2023-01-11T14:50:41.004Z,6.05
2023-01-11T14:53:09.748Z,2.53
2023-01-11T14:55:37.683Z,8.25
2023-01-11T14:58:24.248Z,2.50
2023-01-11T15:00:56.641Z,5.10
2023-01-11T15:03:22.981Z,5.43
2023-01-11T15:05:52.160Z,7.57
2023-01-11T15:08:22.251Z,4.00
2023-01-11T15:11:20.227Z,6.43
2023-01-11T15:13:49.484Z,5.82
2023-01-11T15:16:39.722Z,3.78
2023-01-11T15:19:08.047Z,5.70
2023-01-11T15:21:41.512Z,4.40
2023-01-11T15:24:20.397Z,7.32
2023-01-11T15:26:48.024Z,6.47
2023-01-11T15:29:20.645Z,6.63
2023-01-11T15:32:02.185Z,6.72
2023-01-11T15:34:31.626Z,7.28
2023-01-11T15:36:57.916Z,5.00
2023-01-11T15:39:37.260Z,4.63
2023-01-11T15:42:09.664Z,6.20
2023-01-11T15:44:54.877Z,7.30
2023-01-11T15:47:23.996Z,6.90
2023-01-11T15:50:09.193Z,3.08
2023-01-11T15:52:50.983Z,3.17
2023-01-11T15:55:23.247Z,2.88
2023-01-11T15:57:49.581Z,7.68
2023-01-11T16:00:34.877Z,6.75
2023-01-11T16:03:16.420Z,6.75
2023-01-11T16:05:44.871Z,4.63
2023-01-11T16:08:11.155Z,6.95
2023-01-11T16:10:40.578Z,6.07
2023-01-11T16:13:29.614Z,4.57
2023-01-11T16:16:05.811Z,3.78
2023-01-11T16:18:38.110Z,10.35
2023-01-11T16:21:12.681Z,5.55
2023-01-11T16:23:39.301Z,5.22
2023-01-11T16:26:06.868Z,6.43
2023-01-11T16:28:33.507Z,8.18
2023-01-11T16:31:05.146Z,7.80
2023-01-11T16:33:33.136Z,12.18
2023-01-11T16:36:03.735Z,7.07
2023-01-11T16:38:31.030Z,5.15
2023-01-11T16:40:58.471Z,10.32
2023-01-11T16:43:29.825Z,4.38
2023-01-11T16:45:56.478Z,4.32
2023-01-11T16:48:23.031Z,5.97
2023-01-11T16:50:58.470Z,6.20
2023-01-11T16:53:25.937Z,8.70
2023-01-11T16:56:05.340Z,5.30
2023-01-11T16:58:35.951Z,7.63
2023-01-11T17:01:09.415Z,4.45
2023-01-11T17:03:36.820Z,6.75
2023-01-11T17:06:09.353Z,5.78
2023-01-11T17:08:41.875Z,5.50
2023-01-11T17:11:26.726Z,5.18
2023-01-11T17:14:02.316Z,5.10
2023-01-11T17:16:35.550Z,4.03
2023-01-11T17:19:12.078Z,4.20
2023-01-11T17:21:38.600Z,8.13
2023-01-11T17:24:05.764Z,6.72
2023-01-11T17:26:35.665Z,5.00
2023-01-11T17:29:02.313Z,6.60
2023-01-11T17:31:32.900Z,6.68
2023-01-11T17:34:00.637Z,6.50
2023-01-11T17:36:27.321Z,4.72
2023-01-11T17:38:55.748Z,5.18
2023-01-11T17:41:40.925Z,9.38
2023-01-11T17:44:29.091Z,8.77
2023-01-11T17:46:55.398Z,4.38
2023-01-11T17:49:23.045Z,4.28
2023-01-11T17:51:49.575Z,2.75
2023-01-11T17:54:20.209Z,3.60
2023-01-11T17:56:50.866Z,8.18
2023-01-11T17:59:21.885Z,8.45
2023-01-11T18:01:49.905Z,5.15
2023-01-11T18:04:20.790Z,7.03
2023-01-11T18:06:48.511Z,9.50
2023-01-11T18:09:34.067Z,7.03
2023-01-11T18:12:06.819Z,7.70
2023-01-11T18:14:38.757Z,5.63
2023-01-11T18:17:07.151Z,7.43
2023-01-11T18:19:42.922Z,7.13
2023-01-11T18:22:37.305Z,9.60
2023-01-11T18:25:22.529Z,6.18
2023-01-11T18:27:49.606Z,6.75
2023-01-11T18:30:31.316Z,6.68
2023-01-11T18:33:03.974Z,6.10
2023-01-11T18:35:30.795Z,13.00
2023-01-11T18:37:57.147Z,8.57
2023-01-11T18:40:23.487Z,8.55
2023-01-11T18:42:51.279Z,9.35
2023-01-11T18:45:17.887Z,6.93
2023-01-11T18:47:44.283Z,9.65
2023-01-11T18:50:12.443Z,6.53
2023-01-11T18:52:39.088Z,7.25
2023-01-11T18:55:05.537Z,9.27
2023-01-11T18:57:31.912Z,8.13
2023-01-11T18:59:58.338Z,7.70
2023-01-11T19:02:29.041Z,5.72
2023-01-11T19:04:56.249Z,2.95
2023-01-11T19:07:23.255Z,10.32
2023-01-11T19:09:49.684Z,5.60
2023-01-11T19:12:16.569Z,5.32
2023-01-11T19:14:42.942Z,8.50
2023-01-11T19:17:10.144Z,9.77
2023-01-11T19:19:37.468Z,4.82
2023-01-11T19:22:04.634Z,5.65
2023-01-11T19:24:31.054Z,8.32
2023-01-11T19:26:57.507Z,6.35
2023-01-11T19:29:24.776Z,6.13
2023-01-11T19:31:52.576Z,3.42
2023-01-11T19:34:19.291Z,8.98
2023-01-11T19:36:45.663Z,5.57
2023-01-11T19:39:11.993Z,6.95
2023-01-11T19:41:57.310Z,3.83
2023-01-11T19:44:29.368Z,6.65
2023-01-11T19:49:36.605Z,6.53
2023-01-11T19:52:03.135Z,5.22
2023-01-11T19:54:29.445Z,4.88
2023-01-11T19:56:55.802Z,6.85
2023-01-11T19:59:22.157Z,8.35
2023-01-11T20:01:48.642Z,8.07
2023-01-11T20:04:16.352Z,10.82
2023-01-11T20:06:53.885Z,4.13
2023-01-11T20:09:21.069Z,6.32
2023-01-11T20:11:49.351Z,9.75
2023-01-11T20:14:19.111Z,11.40
2023-01-11T20:16:45.434Z,7.05
2023-01-11T20:19:12.065Z,8.27
2023-01-11T20:21:38.395Z,8.48
2023-01-11T20:24:04.967Z,9.43
2023-01-11T20:26:33.775Z,5.47
2023-01-11T20:29:00.381Z,7.38
2023-01-11T20:31:28.236Z,7.25
2023-01-11T20:33:55.144Z,4.50
2023-01-11T20:36:21.552Z,4.97
2023-01-11T20:38:47.913Z,8.60
2023-01-11T20:41:38.279Z,5.07
2023-01-11T20:44:05.605Z,6.40
2023-01-11T20:46:32.416Z,5.75
2023-01-11T20:48:59.124Z,9.85
2023-01-11T20:51:25.558Z,9.27
2023-01-11T20:53:52.038Z,6.10
2023-01-11T20:56:18.698Z,7.55
2023-01-11T20:58:48.646Z,6.40
2023-01-11T21:01:35.957Z,6.10
2023-01-11T21:04:04.810Z,7.72
2023-01-11T21:06:31.894Z,4.38
2023-01-11T21:08:58.922Z,5.70
2023-01-11T21:11:25.889Z,8.93
2023-01-11T21:13:53.048Z,8.52
2023-01-11T21:16:20.232Z,4.00
2023-01-11T21:18:46.600Z,6.43
2023-01-11T21:21:14.192Z,5.97
2023-01-11T21:23:40.495Z,4.53
2023-01-11T21:26:11.614Z,8.20
2023-01-11T21:28:38.655Z,9.50
2023-01-11T21:31:05.292Z,6.30
2023-01-11T21:33:31.968Z,6.00
2023-01-11T21:36:02.033Z,6.55
2023-01-11T21:38:29.570Z,5.05
2023-01-11T21:40:56.001Z,11.25
2023-01-11T21:43:22.338Z,6.55
2023-01-11T21:45:58.328Z,7.63
2023-01-11T21:48:24.654Z,5.18
2023-01-11T21:50:51.051Z,8.65
2023-01-11T21:53:17.358Z,9.43
2023-01-11T21:55:43.648Z,6.30
2023-01-11T21:58:10.041Z,5.43
2023-01-11T22:00:36.505Z,9.27
2023-01-11T22:03:02.887Z,9.30
2023-01-11T22:05:30.907Z,10.23
2023-01-11T22:07:57.353Z,6.38
2023-01-11T22:10:23.787Z,4.93
2023-01-11T22:12:50.197Z,9.05
2023-01-11T22:15:16.528Z,3.85
2023-01-11T22:17:43.175Z,10.95
2023-01-11T22:20:10.184Z,5.85
2023-01-11T22:22:36.680Z,7.00
2023-01-11T22:25:03.032Z,8.20
2023-01-11T22:27:29.410Z,4.90
2023-01-11T22:29:55.741Z,4.78
2023-01-11T22:32:22.050Z,6.35
2023-01-11T22:34:48.455Z,4.90
2023-01-11T22:37:14.855Z,5.32
2023-01-11T22:39:41.353Z,4.88
2023-01-11T22:42:08.026Z,8.70
2023-01-11T22:44:34.487Z,8.45
2023-01-11T22:47:00.913Z,7.20
2023-01-11T22:49:27.247Z,9.73
2023-01-11T22:51:53.680Z,4.90
2023-01-11T22:54:20.015Z,6.90
2023-01-11T22:56:46.475Z,7.05
2023-01-11T22:59:12.843Z,6.32
2023-01-11T23:01:40.140Z,9.05
2023-01-11T23:04:07.426Z,11.57
2023-01-11T23:06:35.291Z,6.40
2023-01-11T23:09:01.973Z,7.10
2023-01-11T23:11:48.969Z,6.47
2023-01-11T23:14:17.133Z,7.63
2023-01-11T23:16:44.719Z,6.53
2023-01-11T23:19:13.758Z,5.63
2023-01-11T23:21:40.684Z,5.93
2023-01-11T23:24:07.394Z,7.60
2023-01-11T23:26:33.740Z,6.15
2023-01-11T23:29:00.061Z,9.77
2023-01-11T23:31:27.887Z,4.88
2023-01-11T23:33:56.007Z,7.95
2023-01-11T23:36:24.153Z,10.23
2023-01-11T23:38:50.859Z,5.57
2023-01-11T23:41:37.003Z,7.82
2023-01-11T23:44:07.314Z,5.97
2023-01-11T23:46:52.475Z,8.65
2023-01-11T23:49:18.839Z,7.30
2023-01-11T23:51:45.129Z,7.13
2023-01-11T23:54:11.770Z,4.05
2023-01-11T23:56:38.777Z,9.88
2023-01-11T23:59:05.606Z,8.40
